createdAt,value
2018-11-03T00:00:04.991Z,19.96
2018-11-03T00:01:05.828Z,19.97
2018-11-03T00:02:04.924Z,19.95
2018-11-03T00:03:05.262Z,19.94
2018-11-03T00:04:04.923Z,19.96
2018-11-03T00:05:04.861Z,19.95
2018-11-03T00:06:05.169Z,19.94
2018-11-03T00:07:04.978Z,19.94
2018-11-03T00:08:05.230Z,19.94
2018-11-03T00:09:04.958Z,19.92
2018-11-03T00:10:05.213Z,19.91
2018-11-03T00:11:04.891Z,19.92
2018-11-03T00:12:05.056Z,19.91
2018-11-03T00:13:04.900Z,19.91
2018-11-03T00:14:05.167Z,19.89
2018-11-03T00:15:05.302Z,19.9
2018-11-03T00:16:06.177Z,19.9
2018-11-03T00:17:05.267Z,19.91
2018-11-03T00:18:05.068Z,19.89
2018-11-03T00:19:04.965Z,19.86
2018-11-03T00:20:05.327Z,19.85
2018-11-03T00:21:05.041Z,19.89
2018-11-03T00:22:05.342Z,19.88
2018-11-03T00:23:04.807Z,19.89
2018-11-03T00:24:05.268Z,19.87
2018-11-03T00:25:05.161Z,19.86
2018-11-03T00:26:06.451Z,19.87
2018-11-03T00:27:05.568Z,19.86
2018-11-03T00:28:04.849Z,19.85
2018-11-03T00:29:04.989Z,19.84
2018-11-03T00:30:05.338Z,19.84
2018-11-03T00:31:05.082Z,19.85
2018-11-03T00:32:05.296Z,19.86
2018-11-03T00:33:04.823Z,19.85
2018-11-03T00:34:05.157Z,19.84
2018-11-03T00:35:04.959Z,19.83
2018-11-03T00:36:05.011Z,19.83
2018-11-03T00:37:05.247Z,19.82
2018-11-03T00:38:04.879Z,19.83
2018-11-03T00:39:04.954Z,19.82
2018-11-03T00:40:05.391Z,19.81
2018-11-03T00:41:05.176Z,19.84
2018-11-03T00:42:04.973Z,19.82
2018-11-03T00:43:05.146Z,19.82
2018-11-03T00:44:04.804Z,19.82
2018-11-03T00:45:05.094Z,19.8
2018-11-03T00:46:05.042Z,19.8
2018-11-03T00:47:04.882Z,19.79
2018-11-03T00:48:05.904Z,19.8
2018-11-03T00:49:05.111Z,19.79
2018-11-03T00:50:05.679Z,19.79
2018-11-03T00:51:04.799Z,19.77
2018-11-03T00:52:05.279Z,19.82
2018-11-03T00:53:05.236Z,19.79
2018-11-03T00:54:05.443Z,19.8
2018-11-03T00:55:05.023Z,19.77
2018-11-03T00:56:06.310Z,19.79
2018-11-03T00:57:04.940Z,19.79
2018-11-03T00:58:05.235Z,19.75
2018-11-03T00:59:04.893Z,19.75
2018-11-03T01:00:04.940Z,19.76
2018-11-03T01:01:05.057Z,19.74
2018-11-03T01:02:05.274Z,19.75
2018-11-03T01:03:05.132Z,19.75
2018-11-03T01:04:05.186Z,19.75
2018-11-03T01:05:05.002Z,19.75
2018-11-03T01:06:06.226Z,19.74
2018-11-03T01:07:05.166Z,19.74
2018-11-03T01:08:05.144Z,19.73
2018-11-03T01:09:05.371Z,19.74
2018-11-03T01:10:05.128Z,19.73
2018-11-03T01:11:05.063Z,19.75
2018-11-03T01:12:05.196Z,19.73
2018-11-03T01:13:05.227Z,19.71
2018-11-03T01:14:05.022Z,19.73
2018-11-03T01:15:04.948Z,19.72
2018-11-03T01:16:05.007Z,19.71
2018-11-03T01:17:04.978Z,19.71
2018-11-03T01:18:05.364Z,19.71
2018-11-03T01:19:05.346Z,19.69
2018-11-03T01:20:05.426Z,19.71
2018-11-03T01:21:04.971Z,19.69
2018-11-03T01:22:04.934Z,19.69
2018-11-03T01:23:05.041Z,19.69
2018-11-03T01:24:05.331Z,19.68
2018-11-03T01:25:05.099Z,19.68
2018-11-03T01:26:04.788Z,19.7
2018-11-03T01:27:05.134Z,19.69
2018-11-03T01:28:04.984Z,19.69
2018-11-03T01:29:04.853Z,19.68
2018-11-03T01:30:04.933Z,19.69
2018-11-03T01:31:04.745Z,19.68
2018-11-03T01:32:05.052Z,19.67
2018-11-03T01:33:04.811Z,19.67
2018-11-03T01:34:05.379Z,19.67
2018-11-03T01:35:04.946Z,19.68
2018-11-03T01:36:04.929Z,19.67
2018-11-03T01:37:05.085Z,19.67
2018-11-03T01:38:04.807Z,19.67
2018-11-03T01:39:04.924Z,19.67
2018-11-03T01:40:04.741Z,19.65
2018-11-03T01:41:05.022Z,19.65
2018-11-03T01:42:04.952Z,19.66
2018-11-03T01:43:04.832Z,19.65
2018-11-03T01:44:04.957Z,19.63
2018-11-03T01:45:05.151Z,19.65
2018-11-03T01:46:06.205Z,19.65
2018-11-03T01:47:05.264Z,19.62
2018-11-03T01:48:05.259Z,19.63
2018-11-03T01:49:04.947Z,19.63
2018-11-03T01:50:05.190Z,19.62
2018-11-03T01:51:04.951Z,19.61
2018-11-03T01:52:05.018Z,19.6
2018-11-03T01:53:05.354Z,19.62
2018-11-03T01:54:04.706Z,19.61
2018-11-03T01:55:04.911Z,19.59
2018-11-03T01:56:06.999Z,19.62
2018-11-03T01:57:04.987Z,19.61
2018-11-03T01:58:05.210Z,19.61
2018-11-03T01:59:04.926Z,19.6
2018-11-03T02:00:04.848Z,19.6
2018-11-03T02:01:04.781Z,19.59
2018-11-03T02:02:04.946Z,19.6
2018-11-03T02:03:05.008Z,19.62
2018-11-03T02:04:05.301Z,19.6
2018-11-03T02:05:05.138Z,19.59
2018-11-03T02:06:06.450Z,19.6
2018-11-03T02:07:04.960Z,19.59
2018-11-03T02:08:05.307Z,19.6
2018-11-03T02:09:05.117Z,19.6
2018-11-03T02:10:05.374Z,19.6
2018-11-03T02:11:04.900Z,19.6
2018-11-03T02:12:05.752Z,19.58
2018-11-03T02:13:04.816Z,19.57
2018-11-03T02:14:04.809Z,19.58
2018-11-03T02:15:05.184Z,19.59
2018-11-03T02:16:05.479Z,19.58
2018-11-03T02:17:04.897Z,19.55
2018-11-03T02:18:04.885Z,19.57
2018-11-03T02:19:05.190Z,19.57
2018-11-03T02:20:05.140Z,19.57
2018-11-03T02:21:05.351Z,19.56
2018-11-03T02:22:05.234Z,19.59
2018-11-03T02:23:05.020Z,19.58
2018-11-03T02:24:04.991Z,19.58
2018-11-03T02:25:05.976Z,19.55
2018-11-03T02:26:05.316Z,19.57
2018-11-03T02:27:06.397Z,19.56
2018-11-03T02:28:04.813Z,19.57
2018-11-03T02:29:05.188Z,19.56
2018-11-03T02:30:05.755Z,19.55
2018-11-03T02:31:04.970Z,19.56
2018-11-03T02:32:05.624Z,19.56
2018-11-03T02:33:04.878Z,19.54
2018-11-03T02:34:05.405Z,19.56
2018-11-03T02:35:04.971Z,19.55
2018-11-03T02:36:05.099Z,19.53
2018-11-03T02:37:06.468Z,19.53
2018-11-03T02:38:05.405Z,19.54
2018-11-03T02:39:05.224Z,19.52
2018-11-03T02:40:05.316Z,19.54
2018-11-03T02:41:05.018Z,19.53
2018-11-03T02:42:05.079Z,19.54
2018-11-03T02:43:05.279Z,19.53
2018-11-03T02:44:04.813Z,19.53
2018-11-03T02:45:05.195Z,19.52
2018-11-03T02:46:05.103Z,19.52
2018-11-03T02:47:06.438Z,19.5
2018-11-03T02:48:05.100Z,19.51
2018-11-03T02:49:04.907Z,19.52
2018-11-03T02:50:05.451Z,19.51
2018-11-03T02:51:05.276Z,19.52
2018-11-03T02:52:04.962Z,19.52
2018-11-03T02:53:04.927Z,19.5
2018-11-03T02:54:04.953Z,19.52
2018-11-03T02:55:04.975Z,19.5
2018-11-03T02:56:05.096Z,19.5
2018-11-03T02:57:06.714Z,19.52
2018-11-03T02:58:05.157Z,19.48
2018-11-03T02:59:04.956Z,19.5
2018-11-03T03:00:04.932Z,19.51
2018-11-03T03:01:05.054Z,19.48
2018-11-03T03:02:05.057Z,19.51
2018-11-03T03:03:05.005Z,19.5
2018-11-03T03:04:05.109Z,19.48
2018-11-03T03:05:05.325Z,19.48
2018-11-03T03:06:04.912Z,19.47
2018-11-03T03:07:06.376Z,19.48
2018-11-03T03:08:04.770Z,19.46
2018-11-03T03:09:04.968Z,19.47
2018-11-03T03:10:05.042Z,19.5
2018-11-03T03:11:04.980Z,19.46
2018-11-03T03:12:05.131Z,19.46
2018-11-03T03:13:04.916Z,19.46
2018-11-03T03:14:05.168Z,19.48
2018-11-03T03:15:04.741Z,19.45
2018-11-03T03:16:04.967Z,19.45
2018-11-03T03:17:06.347Z,19.47
2018-11-03T03:18:04.986Z,19.46
2018-11-03T03:19:04.863Z,19.47
2018-11-03T03:20:05.053Z,19.45
2018-11-03T03:21:05.084Z,19.46
2018-11-03T03:22:04.724Z,19.45
2018-11-03T03:23:04.920Z,19.45
2018-11-03T03:24:04.847Z,19.45
2018-11-03T03:25:04.858Z,19.45
2018-11-03T03:26:05.434Z,19.44
2018-11-03T03:27:06.313Z,19.44
2018-11-03T03:28:04.872Z,19.44
2018-11-03T03:29:05.993Z,19.45
2018-11-03T03:30:05.033Z,19.42
2018-11-03T03:31:04.997Z,19.42
2018-11-03T03:32:05.037Z,19.42
2018-11-03T03:33:05.159Z,19.43
2018-11-03T03:34:04.979Z,19.44
2018-11-03T03:35:05.014Z,19.42
2018-11-03T03:36:05.087Z,19.43
2018-11-03T03:37:04.827Z,19.43
2018-11-03T03:38:05.292Z,19.42
2018-11-03T03:39:04.819Z,19.42
2018-11-03T03:40:05.177Z,19.44
2018-11-03T03:41:05.069Z,19.42
2018-11-03T03:42:04.850Z,19.4
2018-11-03T03:43:04.921Z,19.42
2018-11-03T03:44:05.352Z,19.4
2018-11-03T03:45:05.301Z,19.41
2018-11-03T03:46:05.718Z,19.4
2018-11-03T03:47:06.870Z,19.41
2018-11-03T03:48:05.277Z,19.41
2018-11-03T03:49:05.050Z,19.39
2018-11-03T03:50:04.959Z,19.41
2018-11-03T03:51:04.820Z,19.42
2018-11-03T03:52:05.360Z,19.4
2018-11-03T03:53:04.829Z,19.4
2018-11-03T03:54:04.826Z,19.41
2018-11-03T03:55:05.247Z,19.39
2018-11-03T03:56:04.983Z,19.41
2018-11-03T03:57:04.900Z,19.39
2018-11-03T03:58:04.953Z,19.4
2018-11-03T03:59:04.947Z,19.4
2018-11-03T04:00:05.285Z,19.39
2018-11-03T04:01:05.332Z,19.37
2018-11-03T04:02:04.914Z,19.39
2018-11-03T04:03:05.249Z,19.39
2018-11-03T04:04:05.014Z,19.4
2018-11-03T04:05:05.011Z,19.38
2018-11-03T04:06:05.490Z,19.39
2018-11-03T04:07:05.105Z,19.37
2018-11-03T04:08:04.921Z,19.37
2018-11-03T04:09:04.930Z,19.39
2018-11-03T04:10:05.345Z,19.39
2018-11-03T04:11:05.027Z,19.37
2018-11-03T04:12:04.848Z,19.39
2018-11-03T04:13:04.913Z,19.36
2018-11-03T04:14:04.656Z,19.37
2018-11-03T04:15:04.801Z,19.36
2018-11-03T04:16:06.153Z,19.36
2018-11-03T04:17:04.908Z,19.37
2018-11-03T04:18:04.930Z,19.35
2018-11-03T04:19:05.039Z,19.35
2018-11-03T04:20:04.983Z,19.37
2018-11-03T04:21:04.863Z,19.35
2018-11-03T04:22:04.799Z,19.33
2018-11-03T04:23:05.188Z,19.35
2018-11-03T04:24:04.982Z,19.36
2018-11-03T04:25:04.945Z,19.32
2018-11-03T04:26:06.436Z,19.36
2018-11-03T04:27:04.713Z,19.33
2018-11-03T04:28:05.368Z,19.36
2018-11-03T04:29:04.891Z,19.33
2018-11-03T04:30:05.104Z,19.35
2018-11-03T04:31:04.917Z,19.32
2018-11-03T04:32:04.932Z,19.35
2018-11-03T04:33:04.893Z,19.33
2018-11-03T04:34:04.876Z,19.36
2018-11-03T04:35:05.007Z,19.3
2018-11-03T04:36:04.747Z,19.32
2018-11-03T04:37:04.801Z,19.35
2018-11-03T04:38:05.027Z,19.33
2018-11-03T04:39:04.683Z,19.32
2018-11-03T04:40:04.786Z,19.3
2018-11-03T04:41:04.809Z,19.32
2018-11-03T04:42:04.783Z,19.33
2018-11-03T04:43:05.153Z,19.32
2018-11-03T04:44:04.941Z,19.29
2018-11-03T04:45:04.922Z,19.3
2018-11-03T04:46:04.685Z,19.3
2018-11-03T04:47:04.874Z,19.31
2018-11-03T04:48:04.728Z,19.32
2018-11-03T04:49:05.042Z,19.3
2018-11-03T04:50:04.752Z,19.3
2018-11-03T04:51:04.722Z,19.32
2018-11-03T04:52:04.938Z,19.31
2018-11-03T04:53:05.292Z,19.32
2018-11-03T04:54:05.024Z,19.3
2018-11-03T04:55:05.820Z,19.31
2018-11-03T04:56:05.124Z,19.29
2018-11-03T04:57:05.111Z,19.3
2018-11-03T04:58:04.839Z,19.32
2018-11-03T04:59:05.143Z,19.31
2018-11-03T05:00:05.017Z,19.32
2018-11-03T05:01:05.091Z,19.33
2018-11-03T05:02:04.752Z,19.32
2018-11-03T05:03:05.009Z,19.33
2018-11-03T05:04:05.188Z,19.33
2018-11-03T05:05:04.802Z,19.32
2018-11-03T05:06:05.333Z,19.33
2018-11-03T05:07:04.720Z,19.36
2018-11-03T05:08:05.042Z,19.38
2018-11-03T05:09:05.059Z,19.35
2018-11-03T05:10:05.416Z,19.37
2018-11-03T05:11:05.199Z,19.38
2018-11-03T05:12:04.751Z,19.36
2018-11-03T05:13:05.052Z,19.38
2018-11-03T05:14:04.745Z,19.39
2018-11-03T05:15:04.896Z,19.41
2018-11-03T05:16:04.877Z,19.42
2018-11-03T05:17:05.487Z,19.42
2018-11-03T05:18:04.559Z,19.43
2018-11-03T05:19:04.764Z,19.44
2018-11-03T05:20:04.950Z,19.47
2018-11-03T05:21:05.125Z,19.5
2018-11-03T05:22:04.946Z,19.5
2018-11-03T05:23:05.075Z,19.51
2018-11-03T05:24:04.731Z,19.51
2018-11-03T05:25:04.924Z,19.52
2018-11-03T05:26:04.941Z,19.54
2018-11-03T05:27:04.878Z,19.55
2018-11-03T05:28:04.828Z,19.56
2018-11-03T05:29:04.917Z,19.59
2018-11-03T05:30:04.765Z,19.58
2018-11-03T05:31:05.715Z,19.59
2018-11-03T05:32:04.933Z,19.59
2018-11-03T05:33:04.741Z,19.61
2018-11-03T05:34:04.896Z,19.62
2018-11-03T05:35:05.012Z,19.63
2018-11-03T05:36:05.910Z,19.65
2018-11-03T05:37:04.788Z,19.67
2018-11-03T05:38:04.824Z,19.68
2018-11-03T05:39:05.863Z,19.68
2018-11-03T05:40:05.018Z,19.69
2018-11-03T05:41:04.905Z,19.7
2018-11-03T05:42:05.162Z,19.71
2018-11-03T05:43:05.772Z,19.71
2018-11-03T05:44:05.041Z,19.73
2018-11-03T05:45:04.897Z,19.75
2018-11-03T05:46:06.496Z,19.76
2018-11-03T05:47:05.095Z,19.76
2018-11-03T05:48:05.103Z,19.76
2018-11-03T05:49:05.118Z,19.79
2018-11-03T05:50:04.783Z,19.8
2018-11-03T05:51:05.538Z,19.8
2018-11-03T05:52:04.747Z,19.82
2018-11-03T05:53:04.941Z,19.83
2018-11-03T05:54:05.353Z,19.83
2018-11-03T05:55:05.453Z,19.84
2018-11-03T05:56:06.670Z,19.85
2018-11-03T05:57:04.840Z,19.88
2018-11-03T05:58:05.793Z,19.9
2018-11-03T05:59:05.433Z,19.87
2018-11-03T06:00:04.890Z,19.9
2018-11-03T06:01:04.757Z,19.9
2018-11-03T06:02:04.819Z,19.91
2018-11-03T06:03:05.101Z,19.94
2018-11-03T06:04:04.861Z,19.94
2018-11-03T06:05:04.971Z,19.95
2018-11-03T06:06:05.922Z,19.95
2018-11-03T06:07:04.952Z,19.96
2018-11-03T06:08:04.813Z,19.98
2018-11-03T06:09:04.966Z,19.98
2018-11-03T06:10:04.872Z,19.99
2018-11-03T06:11:04.905Z,20
2018-11-03T06:12:04.764Z,19.99
2018-11-03T06:13:05.057Z,20.01
2018-11-03T06:14:05.056Z,20.01
2018-11-03T06:15:05.004Z,20.03
2018-11-03T06:16:05.630Z,20.04
2018-11-03T06:17:04.772Z,20.04
2018-11-03T06:18:04.991Z,20.05
2018-11-03T06:19:04.739Z,20.07
2018-11-03T06:20:04.817Z,20.05
2018-11-03T06:21:04.938Z,20.06
2018-11-03T06:22:04.790Z,20.06
2018-11-03T06:23:05.699Z,20.07
2018-11-03T06:24:04.653Z,20.07
2018-11-03T06:25:04.964Z,20.09
2018-11-03T06:26:05.604Z,20.09
2018-11-03T06:27:04.814Z,20.1
2018-11-03T06:28:05.987Z,20.09
2018-11-03T06:29:05.065Z,20.1
2018-11-03T06:30:05.336Z,20.1
2018-11-03T06:31:04.788Z,20.11
2018-11-03T06:32:04.842Z,20.12
2018-11-03T06:33:05.247Z,20.12
2018-11-03T06:34:05.001Z,20.12
2018-11-03T06:35:06.115Z,20.12
2018-11-03T06:36:04.709Z,20.11
2018-11-03T06:37:05.254Z,20.13
2018-11-03T06:38:04.792Z,20.12
2018-11-03T06:39:05.818Z,20.14
2018-11-03T06:40:05.562Z,20.14
2018-11-03T06:41:04.820Z,20.15
2018-11-03T06:42:04.797Z,20.12
2018-11-03T06:43:04.866Z,20.16
2018-11-03T06:44:04.719Z,20.13
2018-11-03T06:45:05.033Z,20.16
2018-11-03T06:46:04.816Z,20.16
2018-11-03T06:47:05.091Z,20.16
2018-11-03T06:48:04.815Z,20.16
2018-11-03T06:49:04.804Z,20.17
2018-11-03T06:50:05.023Z,20.18
2018-11-03T06:51:05.166Z,20.18
2018-11-03T06:52:05.875Z,20.17
2018-11-03T06:53:05.234Z,20.16
2018-11-03T06:54:04.910Z,20.18
2018-11-03T06:55:05.039Z,20.19
2018-11-03T06:56:04.743Z,20.21
2018-11-03T06:57:05.140Z,20.21
2018-11-03T06:58:04.720Z,20.19
2018-11-03T06:59:05.100Z,20.2
2018-11-03T07:00:05.044Z,20.21
2018-11-03T07:01:05.070Z,20.22
2018-11-03T07:02:05.015Z,20.24
2018-11-03T07:03:04.755Z,20.26
2018-11-03T07:04:05.001Z,20.26
2018-11-03T07:05:05.569Z,20.24
2018-11-03T07:06:05.103Z,20.25
2018-11-03T07:07:06.050Z,20.25
2018-11-03T07:08:05.185Z,20.25
2018-11-03T07:09:04.909Z,20.26
2018-11-03T07:10:04.982Z,20.27
2018-11-03T07:11:04.775Z,20.3
2018-11-03T07:12:05.654Z,20.3
2018-11-03T07:13:05.963Z,20.28
2018-11-03T07:14:04.846Z,20.3
2018-11-03T07:15:05.268Z,20.3
2018-11-03T07:16:04.649Z,20.3
2018-11-03T07:17:07.046Z,20.3
2018-11-03T07:18:04.760Z,20.32
2018-11-03T07:19:04.661Z,20.33
2018-11-03T07:20:05.102Z,20.3
2018-11-03T07:21:04.700Z,20.32
2018-11-03T07:22:05.141Z,20.34
2018-11-03T07:23:05.051Z,20.33
2018-11-03T07:24:05.023Z,20.34
2018-11-03T07:25:05.259Z,20.33
2018-11-03T07:26:06.289Z,20.35
2018-11-03T07:27:04.709Z,20.34
2018-11-03T07:28:04.988Z,20.34
2018-11-03T07:29:04.641Z,20.36
2018-11-03T07:30:04.824Z,20.36
2018-11-03T07:31:04.973Z,20.36
2018-11-03T07:32:04.871Z,20.36
2018-11-03T07:33:05.037Z,20.39
2018-11-03T07:34:04.916Z,20.39
2018-11-03T07:35:05.284Z,20.39
2018-11-03T07:36:06.702Z,20.4
2018-11-03T07:37:05.397Z,20.41
2018-11-03T07:38:04.708Z,20.39
2018-11-03T07:39:04.792Z,20.4
2018-11-03T07:40:04.810Z,20.39
2018-11-03T07:41:05.909Z,20.42
2018-11-03T07:42:04.675Z,20.43
2018-11-03T07:43:04.813Z,20.41
2018-11-03T07:44:04.874Z,20.42
2018-11-03T07:45:05.808Z,20.44
2018-11-03T07:46:04.762Z,20.43
2018-11-03T07:47:04.922Z,20.44
2018-11-03T07:48:05.843Z,20.45
2018-11-03T07:49:06.606Z,20.43
2018-11-03T07:50:04.811Z,20.46
2018-11-03T07:51:04.920Z,20.45
2018-11-03T07:52:04.794Z,20.44
2018-11-03T07:53:05.021Z,20.46
2018-11-03T07:54:05.202Z,20.47
2018-11-03T07:55:05.988Z,20.46
2018-11-03T07:56:04.779Z,20.49
2018-11-03T07:57:04.760Z,20.47
2018-11-03T07:58:04.802Z,20.48
2018-11-03T07:59:05.021Z,20.48
2018-11-03T08:00:04.894Z,20.48
2018-11-03T08:01:04.613Z,20.49
2018-11-03T08:02:04.879Z,20.5
2018-11-03T08:03:04.797Z,20.51
2018-11-03T08:04:06.051Z,20.5
2018-11-03T08:05:05.234Z,20.51
2018-11-03T08:06:04.751Z,20.5
2018-11-03T08:07:04.869Z,20.53
2018-11-03T08:08:04.676Z,20.53
2018-11-03T08:09:06.082Z,20.53
2018-11-03T08:10:04.917Z,20.53
2018-11-03T08:11:05.405Z,20.5
2018-11-03T08:12:04.683Z,20.5
2018-11-03T08:13:04.929Z,20.53
2018-11-03T08:14:05.913Z,20.54
2018-11-03T08:15:04.864Z,20.54
2018-11-03T08:16:05.211Z,20.54
2018-11-03T08:17:05.360Z,20.51
2018-11-03T08:18:05.182Z,20.53
2018-11-03T08:19:04.892Z,20.55
2018-11-03T08:20:04.881Z,20.55
2018-11-03T08:21:05.157Z,20.56
2018-11-03T08:22:04.877Z,20.53
2018-11-03T08:23:04.752Z,20.54
2018-11-03T08:24:06.833Z,20.56
2018-11-03T08:25:05.028Z,20.56
2018-11-03T08:26:04.963Z,20.56
2018-11-03T08:27:04.990Z,20.54
2018-11-03T08:28:04.874Z,20.56
2018-11-03T08:29:05.229Z,20.61
2018-11-03T08:30:05.211Z,20.64
2018-11-03T08:31:05.024Z,20.63
2018-11-03T08:32:04.600Z,20.61
2018-11-03T08:33:05.265Z,20.6
2018-11-03T08:34:04.883Z,20.6
2018-11-03T08:35:04.780Z,20.61
2018-11-03T08:36:04.706Z,20.62
2018-11-03T08:37:04.661Z,20.62
2018-11-03T08:38:05.114Z,20.6
2018-11-03T08:39:04.748Z,20.6
2018-11-03T08:40:05.195Z,20.61
2018-11-03T08:41:04.808Z,20.61
2018-11-03T08:42:04.612Z,20.6
2018-11-03T08:43:04.803Z,20.61
2018-11-03T08:44:04.928Z,20.61
2018-11-03T08:45:06.243Z,20.62
2018-11-03T08:46:04.597Z,20.61
2018-11-03T08:47:04.755Z,20.61
2018-11-03T08:48:05.952Z,20.61
2018-11-03T08:49:05.076Z,20.63
2018-11-03T08:50:04.880Z,20.63
2018-11-03T08:51:04.833Z,20.63
2018-11-03T08:52:04.873Z,20.62
2018-11-03T08:53:05.038Z,20.61
2018-11-03T08:54:04.671Z,20.63
2018-11-03T08:55:06.620Z,20.63
2018-11-03T08:56:04.618Z,20.65
2018-11-03T08:57:04.872Z,20.64
2018-11-03T08:58:04.648Z,20.64
2018-11-03T08:59:05.446Z,20.63
2018-11-03T09:00:06.124Z,20.64
2018-11-03T09:01:04.866Z,20.64
2018-11-03T09:02:04.767Z,20.64
2018-11-03T09:03:04.851Z,20.66
2018-11-03T09:04:04.835Z,20.68
2018-11-03T09:05:05.769Z,20.65
2018-11-03T09:06:05.425Z,20.65
2018-11-03T09:07:06.579Z,20.65
2018-11-03T09:08:05.259Z,20.64
2018-11-03T09:09:05.292Z,20.65
2018-11-03T09:10:04.916Z,20.64
2018-11-03T09:11:04.758Z,20.63
2018-11-03T09:12:04.754Z,20.63
2018-11-03T09:13:04.777Z,20.63
2018-11-03T09:14:04.749Z,20.65
2018-11-03T09:15:05.797Z,20.64
2018-11-03T09:16:04.789Z,20.63
2018-11-03T09:17:04.841Z,20.65
2018-11-03T09:18:04.898Z,20.64
2018-11-03T09:19:04.731Z,20.66
2018-11-03T09:20:04.698Z,20.63
2018-11-03T09:21:04.768Z,20.65
2018-11-03T09:22:04.816Z,20.68
2018-11-03T09:23:04.787Z,20.66
2018-11-03T09:24:04.868Z,20.64
2018-11-03T09:25:04.805Z,20.64
2018-11-03T09:26:06.330Z,20.7
2018-11-03T09:27:05.201Z,20.66
2018-11-03T09:28:04.765Z,20.68
2018-11-03T09:29:04.785Z,20.71
2018-11-03T09:30:04.726Z,20.72
2018-11-03T09:31:04.801Z,20.72
2018-11-03T09:32:05.809Z,20.74
2018-11-03T09:33:04.603Z,20.73
2018-11-03T09:34:04.881Z,20.75
2018-11-03T09:35:04.682Z,20.77
2018-11-03T09:36:06.714Z,20.77
2018-11-03T09:37:04.693Z,20.78
2018-11-03T09:38:04.671Z,20.78
2018-11-03T09:39:05.318Z,20.78
2018-11-03T09:40:04.998Z,20.8
2018-11-03T09:41:04.813Z,20.79
2018-11-03T09:42:04.843Z,20.8
2018-11-03T09:43:05.926Z,20.83
2018-11-03T09:44:04.497Z,20.81
2018-11-03T09:45:05.880Z,20.84
2018-11-03T09:46:06.373Z,20.85
2018-11-03T09:47:04.626Z,20.85
2018-11-03T09:48:04.942Z,20.86
2018-11-03T09:49:05.470Z,20.87
2018-11-03T09:50:04.791Z,20.84
2018-11-03T09:51:05.550Z,20.84
2018-11-03T09:52:04.881Z,20.84
2018-11-03T09:53:04.795Z,20.84
2018-11-03T09:54:04.538Z,20.84
2018-11-03T09:55:04.959Z,20.85
2018-11-03T09:56:06.034Z,20.87
2018-11-03T09:57:04.738Z,20.85
2018-11-03T09:58:04.721Z,20.85
2018-11-03T09:59:04.757Z,20.85
2018-11-03T10:00:05.628Z,20.86
2018-11-03T10:01:04.841Z,20.85
2018-11-03T10:02:05.034Z,20.87
2018-11-03T10:03:05.421Z,20.88
2018-11-03T10:04:05.057Z,20.88
2018-11-03T10:05:05.165Z,20.89
2018-11-03T10:06:05.800Z,20.88
2018-11-03T10:07:04.809Z,20.88
2018-11-03T10:08:04.450Z,20.89
2018-11-03T10:09:04.822Z,20.86
2018-11-03T10:10:04.731Z,20.88
2018-11-03T10:11:04.811Z,20.88
2018-11-03T10:12:04.716Z,20.89
2018-11-03T10:13:04.822Z,20.88
2018-11-03T10:14:05.460Z,20.89
2018-11-03T10:15:04.761Z,20.92
2018-11-03T10:16:06.214Z,20.92
2018-11-03T10:17:05.638Z,20.93
2018-11-03T10:18:04.678Z,20.92
2018-11-03T10:19:04.977Z,20.92
2018-11-03T10:20:04.535Z,20.93
2018-11-03T10:21:04.842Z,20.94
2018-11-03T10:22:05.210Z,20.94
2018-11-03T10:23:05.997Z,20.93
2018-11-03T10:24:04.910Z,20.98
2018-11-03T10:25:04.873Z,20.95
2018-11-03T10:26:05.086Z,20.96
2018-11-03T10:27:04.863Z,20.96
2018-11-03T10:28:04.615Z,20.98
2018-11-03T10:29:04.952Z,20.99
2018-11-03T10:30:04.688Z,20.99
2018-11-03T10:31:05.076Z,21
2018-11-03T10:32:04.958Z,21
2018-11-03T10:33:05.384Z,21
2018-11-03T10:34:05.184Z,21.02
2018-11-03T10:35:04.630Z,21
2018-11-03T10:36:05.065Z,21.02
2018-11-03T10:37:04.652Z,21.02
2018-11-03T10:38:04.866Z,21.02
2018-11-03T10:39:04.999Z,21.03
2018-11-03T10:40:04.998Z,21.02
2018-11-03T10:41:04.550Z,21.02
2018-11-03T10:42:04.592Z,21.02
2018-11-03T10:43:04.747Z,21.03
2018-11-03T10:44:04.569Z,21.05
2018-11-03T10:45:04.679Z,21.05
2018-11-03T10:46:05.182Z,21.05
2018-11-03T10:47:06.404Z,21.06
2018-11-03T10:48:04.734Z,21.06
2018-11-03T10:49:04.564Z,21.06
2018-11-03T10:50:04.631Z,21.07
2018-11-03T10:51:04.851Z,21.08
2018-11-03T10:52:04.750Z,21.06
2018-11-03T10:53:04.779Z,21.06
2018-11-03T10:54:04.863Z,21.05
2018-11-03T10:55:04.727Z,21.06
2018-11-03T10:56:04.561Z,21.06
2018-11-03T10:57:06.270Z,21.08
2018-11-03T10:58:04.768Z,21.06
2018-11-03T10:59:04.673Z,21.07
2018-11-03T11:00:04.758Z,21.06
2018-11-03T11:01:04.618Z,21.06
2018-11-03T11:02:04.659Z,21.06
2018-11-03T11:03:04.912Z,21.04
2018-11-03T11:04:04.791Z,21.05
2018-11-03T11:05:04.751Z,21.04
2018-11-03T11:06:04.572Z,21.04
2018-11-03T11:07:06.445Z,21.05
2018-11-03T11:08:04.587Z,21.06
2018-11-03T11:09:05.153Z,21.03
2018-11-03T11:10:04.645Z,21.03
2018-11-03T11:11:05.214Z,21.04
2018-11-03T11:12:05.348Z,21.03
2018-11-03T11:13:04.955Z,21.02
2018-11-03T11:14:05.457Z,21.03
2018-11-03T11:15:04.622Z,21.03
2018-11-03T11:16:05.188Z,21.01
2018-11-03T11:17:06.208Z,21.02
2018-11-03T11:18:04.608Z,21.01
2018-11-03T11:19:04.789Z,21
2018-11-03T11:20:05.229Z,21
2018-11-03T11:21:04.831Z,21.02
2018-11-03T11:22:05.198Z,21.01
2018-11-03T11:23:04.670Z,21.02
2018-11-03T11:24:05.835Z,21.02
2018-11-03T11:25:06.401Z,21.04
2018-11-03T11:26:04.865Z,21.01
2018-11-03T11:27:05.873Z,21.01
2018-11-03T11:28:04.916Z,21.04
2018-11-03T11:29:04.776Z,21.04
2018-11-03T11:30:04.999Z,21.05
2018-11-03T11:31:05.086Z,21.04
2018-11-03T11:32:05.913Z,21.04
2018-11-03T11:33:05.515Z,21.03
2018-11-03T11:34:05.209Z,21.06
2018-11-03T11:35:04.730Z,21.05
2018-11-03T11:36:04.846Z,21.07
2018-11-03T11:37:04.992Z,21.08
2018-11-03T11:38:04.683Z,21.07
2018-11-03T11:39:05.054Z,21.08
2018-11-03T11:40:04.748Z,21.08
2018-11-03T11:41:04.993Z,21.08
2018-11-03T11:42:04.906Z,21.1
2018-11-03T11:43:06.029Z,21.1
2018-11-03T11:44:04.769Z,21.09
2018-11-03T11:45:04.681Z,21.13
2018-11-03T11:46:04.759Z,21.13
2018-11-03T11:47:04.774Z,21.13
2018-11-03T11:48:04.878Z,21.15
2018-11-03T11:49:04.685Z,21.15
2018-11-03T11:50:05.029Z,21.15
2018-11-03T11:51:04.518Z,21.17
2018-11-03T11:52:04.573Z,21.16
2018-11-03T11:53:04.591Z,21.17
2018-11-03T11:54:04.537Z,21.19
2018-11-03T11:55:06.256Z,21.18
2018-11-03T11:56:05.026Z,21.2
2018-11-03T11:57:05.237Z,21.18
2018-11-03T11:58:04.956Z,21.21
2018-11-03T11:59:05.022Z,21.2
2018-11-03T12:00:04.665Z,21.2
2018-11-03T12:01:05.023Z,21.21
2018-11-03T12:02:05.346Z,21.21
2018-11-03T12:03:04.854Z,21.23
2018-11-03T12:04:04.830Z,21.23
2018-11-03T12:05:05.435Z,21.23
2018-11-03T12:06:04.934Z,21.24
2018-11-03T12:07:06.784Z,21.22
2018-11-03T12:08:04.473Z,21.24
2018-11-03T12:09:04.880Z,21.25
2018-11-03T12:10:05.871Z,21.24
2018-11-03T12:11:04.721Z,21.24
2018-11-03T12:12:04.859Z,21.25
2018-11-03T12:13:05.099Z,21.25
2018-11-03T12:14:04.540Z,21.24
2018-11-03T12:15:05.018Z,21.24
2018-11-03T12:16:05.789Z,21.27
2018-11-03T12:17:06.138Z,21.25
2018-11-03T12:18:04.717Z,21.28
2018-11-03T12:19:04.744Z,21.25
2018-11-03T12:20:04.725Z,21.24
2018-11-03T12:21:04.483Z,21.24
2018-11-03T12:22:04.615Z,21.24
2018-11-03T12:23:05.875Z,21.24
2018-11-03T12:24:04.880Z,21.23
2018-11-03T12:25:04.788Z,21.23
2018-11-03T12:26:04.773Z,21.23
2018-11-03T12:27:06.109Z,21.22
2018-11-03T12:28:04.817Z,21.23
2018-11-03T12:29:05.033Z,21.23
2018-11-03T12:30:04.747Z,21.24
2018-11-03T12:31:04.718Z,21.24
2018-11-03T12:32:04.772Z,21.22
2018-11-03T12:33:05.934Z,21.23
2018-11-03T12:34:04.656Z,21.2
2018-11-03T12:35:04.701Z,21.22
2018-11-03T12:36:04.708Z,21.21
2018-11-03T12:37:06.691Z,21.23
2018-11-03T12:38:04.985Z,21.22
2018-11-03T12:39:04.695Z,21.23
2018-11-03T12:40:04.705Z,21.22
2018-11-03T12:41:04.894Z,21.22
2018-11-03T12:42:05.028Z,21.2
2018-11-03T12:43:04.480Z,21.2
2018-11-03T12:44:04.615Z,21.22
2018-11-03T12:45:04.702Z,21.24
2018-11-03T12:46:05.140Z,21.23
2018-11-03T12:47:06.050Z,21.24
2018-11-03T12:48:04.888Z,21.21
2018-11-03T12:49:04.789Z,21.22
2018-11-03T12:50:04.844Z,21.2
2018-11-03T12:51:05.288Z,21.2
2018-11-03T12:52:04.858Z,21.19
2018-11-03T12:53:04.998Z,21.2
2018-11-03T12:54:04.958Z,21.2
2018-11-03T12:55:04.660Z,21.18
2018-11-03T12:56:04.985Z,21.19